createdAt,value
2023-01-06T00:15:10.017Z,15.70
2023-01-06T00:20:12.119Z,19.65
2023-01-06T00:25:13.630Z,15.35
2023-01-06T00:30:15.141Z,13.40
2023-01-06T00:35:16.610Z,15.05
2023-01-06T00:40:18.154Z,15.32
2023-01-06T00:45:19.572Z,13.45
2023-01-06T00:50:21.116Z,21.50
2023-01-06T00:55:22.589Z,16.48
2023-01-06T01:00:24.057Z,16.92
2023-01-06T01:05:26.229Z,15.10
2023-01-06T01:10:28.331Z,9.65
2023-01-06T01:15:29.777Z,11.70
2023-01-06T01:20:31.275Z,9.70
2023-01-06T01:25:32.736Z,12.25
2023-01-06T01:30:34.194Z,14.45
2023-01-06T01:35:35.647Z,10.10
2023-01-06T01:40:37.102Z,12.23
2023-01-06T01:45:41.716Z,9.38
2023-01-06T01:50:46.284Z,10.13
2023-01-06T01:55:48.749Z,8.90
2023-01-06T02:00:51.036Z,9.27
2023-01-06T02:05:54.622Z,8.48
2023-01-06T02:10:56.262Z,11.38
2023-01-06T02:16:05.576Z,9.35
2023-01-06T02:21:10.174Z,10.30
2023-01-06T02:26:11.575Z,10.13
2023-01-06T02:31:31.583Z,14.98
2023-01-06T02:36:35.853Z,13.18
2023-01-06T02:41:43.302Z,15.52
2023-01-06T02:47:07.736Z,14.10
2023-01-06T02:52:32.239Z,17.63
2023-01-06T02:58:00.154Z,15.43
2023-01-06T03:03:04.450Z,16.45
2023-01-06T03:08:08.789Z,15.23
2023-01-06T03:13:17.179Z,17.27
2023-01-06T03:18:18.781Z,13.77
2023-01-06T03:23:20.478Z,16.00
2023-01-06T03:28:21.931Z,12.30
2023-01-06T03:33:34.186Z,16.63
2023-01-06T03:39:13.991Z,14.73
2023-01-06T03:44:34.122Z,12.13
2023-01-06T03:49:40.203Z,11.70
2023-01-06T03:54:41.675Z,12.55
2023-01-06T03:59:45.066Z,13.43
2023-01-06T04:05:00.367Z,12.23
2023-01-06T04:10:01.807Z,9.43
2023-01-06T04:15:03.288Z,11.30
2023-01-06T04:20:05.764Z,9.90
2023-01-06T04:25:07.677Z,10.48
2023-01-06T04:30:09.291Z,8.35
2023-01-06T04:35:11.102Z,9.55
2023-01-06T04:40:12.766Z,8.45
2023-01-06T04:45:14.244Z,10.43
2023-01-06T04:50:15.805Z,8.10
2023-01-06T04:55:17.257Z,10.88
2023-01-06T05:00:19.211Z,10.10
2023-01-06T05:05:20.631Z,10.38
2023-01-06T05:10:22.159Z,9.35
2023-01-06T05:15:23.586Z,10.30
2023-01-06T05:20:25.052Z,11.43
2023-01-06T05:25:26.530Z,9.38
2023-01-06T05:30:27.935Z,10.40
2023-01-06T05:35:29.400Z,11.07
2023-01-06T05:40:30.851Z,14.15
2023-01-06T05:45:32.287Z,9.25
2023-01-06T05:50:33.798Z,11.60
2023-01-06T05:55:35.329Z,9.90
2023-01-06T06:00:36.776Z,11.52
2023-01-06T06:05:38.319Z,8.25
2023-01-06T06:10:39.766Z,9.10
2023-01-06T06:15:41.315Z,9.82
2023-01-06T06:20:42.839Z,9.63
2023-01-06T06:25:44.290Z,9.73
2023-01-06T06:30:45.726Z,7.70
2023-01-06T06:35:55.685Z,11.73
2023-01-06T06:40:57.133Z,8.10
2023-01-06T06:45:58.662Z,8.32
2023-01-06T06:51:04.204Z,8.40
2023-01-06T06:56:07.438Z,16.55
2023-01-06T07:01:10.087Z,10.48
2023-01-06T07:06:13.232Z,12.05
2023-01-06T07:11:14.817Z,12.93
2023-01-06T07:16:16.698Z,8.85
2023-01-06T07:21:18.795Z,10.25
2023-01-06T07:26:20.965Z,10.93
2023-01-06T07:31:22.476Z,5.82
2023-01-06T07:36:23.952Z,10.15
2023-01-06T07:41:25.508Z,13.50
2023-01-06T07:46:27.013Z,7.43
2023-01-06T07:51:28.524Z,11.85
2023-01-06T07:56:30.042Z,10.60
2023-01-06T08:01:31.802Z,10.65
2023-01-06T08:06:33.360Z,10.93
2023-01-06T08:11:34.869Z,12.93
2023-01-06T08:16:37.887Z,14.02
2023-01-06T08:21:39.332Z,16.90
2023-01-06T08:26:41.384Z,17.02
2023-01-06T08:31:42.899Z,14.43
2023-01-06T08:36:44.802Z,17.42
2023-01-06T08:41:47.625Z,9.10
2023-01-06T08:46:49.075Z,11.85
2023-01-06T08:51:50.669Z,11.82
2023-01-06T08:56:52.134Z,13.48
2023-01-06T09:01:53.641Z,11.88
2023-01-06T09:06:56.803Z,11.18
2023-01-06T09:11:58.877Z,13.70
2023-01-06T09:17:00.374Z,17.80
2023-01-06T09:22:01.871Z,15.00
2023-01-06T09:27:03.440Z,16.67
2023-01-06T09:32:05.067Z,17.52
2023-01-06T09:37:06.513Z,20.95
2023-01-06T09:42:31.206Z,10.95
2023-01-06T09:47:35.499Z,13.35
2023-01-06T09:52:45.815Z,15.40
2023-01-06T09:57:50.729Z,12.52
2023-01-06T10:02:52.927Z,11.10
2023-01-06T10:08:12.977Z,17.30
2023-01-06T10:13:23.591Z,8.85
2023-01-06T10:18:43.863Z,18.70
2023-01-06T10:24:04.302Z,12.50
2023-01-06T10:29:16.758Z,18.27
2023-01-06T10:34:22.417Z,12.00
2023-01-06T10:39:26.335Z,12.00
2023-01-06T10:44:27.781Z,14.48
2023-01-06T10:49:29.214Z,13.98
2023-01-06T10:54:34.032Z,13.85
2023-01-06T10:59:55.452Z,11.05
2023-01-06T11:05:00.892Z,15.23
2023-01-06T11:10:12.824Z,14.90
2023-01-06T11:15:20.794Z,11.10
2023-01-06T11:20:22.214Z,16.25
2023-01-06T11:25:33.404Z,11.15
2023-01-06T11:30:49.569Z,12.10
2023-01-06T11:35:51.614Z,15.65
2023-01-06T11:40:53.934Z,12.77
2023-01-06T11:46:00.673Z,13.38
2023-01-06T11:51:03.310Z,11.95
2023-01-06T11:56:18.670Z,12.70
2023-01-06T12:01:52.731Z,13.90
2023-01-06T12:07:00.003Z,8.98
2023-01-06T12:12:07.699Z,10.80
2023-01-06T12:17:28.179Z,14.18
2023-01-06T12:22:38.566Z,13.60
2023-01-06T12:27:44.207Z,12.10
2023-01-06T12:32:49.125Z,10.90
2023-01-06T12:37:55.071Z,13.52
2023-01-06T12:43:00.331Z,12.52
2023-01-06T12:48:03.718Z,10.60
2023-01-06T12:53:20.558Z,12.10
2023-01-06T12:58:24.973Z,13.95
2023-01-06T13:03:47.156Z,13.25
2023-01-06T13:08:48.600Z,13.35
2023-01-06T13:19:28.339Z,18.23
2023-01-06T13:24:38.213Z,18.35
2023-01-06T13:29:56.403Z,12.57
2023-01-06T13:35:13.226Z,14.88
2023-01-06T13:40:16.682Z,13.38
2023-01-06T13:45:28.418Z,15.80
2023-01-06T13:50:30.233Z,16.95
2023-01-06T13:55:39.203Z,13.25
2023-01-06T14:00:42.852Z,15.50
2023-01-06T14:05:44.255Z,11.20
2023-01-06T14:10:46.739Z,11.82
2023-01-06T14:15:57.434Z,11.48
2023-01-06T14:21:03.636Z,12.43
2023-01-06T14:26:05.424Z,12.77
2023-01-06T14:31:25.641Z,12.38
2023-01-06T14:41:35.266Z,12.02
2023-01-06T14:46:41.527Z,11.43
2023-01-06T14:51:44.301Z,11.82
2023-01-06T14:56:52.592Z,15.48
2023-01-06T15:01:57.395Z,13.77
2023-01-06T15:07:01.833Z,10.57
2023-01-06T15:12:03.398Z,10.90
2023-01-06T15:17:06.079Z,12.63
2023-01-06T15:22:08.707Z,7.38
2023-01-06T15:27:14.591Z,14.70
2023-01-06T15:32:16.324Z,12.27
2023-01-06T15:37:19.452Z,14.25
2023-01-06T15:42:24.666Z,9.13
2023-01-06T15:47:26.069Z,12.57
2023-01-06T15:52:47.209Z,10.63
2023-01-06T15:57:54.184Z,11.73
2023-01-06T16:02:55.942Z,7.93
2023-01-06T16:08:02.545Z,9.55
2023-01-06T16:13:18.178Z,17.88
2023-01-06T16:18:27.441Z,22.60
2023-01-06T16:23:33.752Z,19.83
2023-01-06T16:28:36.213Z,16.17
2023-01-06T16:33:42.233Z,15.32
2023-01-06T16:38:44.333Z,14.60
2023-01-06T16:43:46.156Z,11.43
2023-01-06T16:48:48.023Z,8.88
2023-01-06T16:53:49.515Z,13.30
2023-01-06T16:58:52.153Z,10.68
2023-01-06T17:03:56.048Z,10.50
2023-01-06T17:09:00.818Z,10.45
2023-01-06T17:14:04.753Z,14.52
2023-01-06T17:19:09.215Z,13.07
2023-01-06T17:24:18.080Z,10.77
2023-01-06T17:29:20.878Z,12.32
2023-01-06T17:34:25.108Z,12.07
2023-01-06T17:39:29.710Z,13.43
2023-01-06T17:44:36.786Z,18.75
2023-01-06T17:49:38.363Z,14.38
2023-01-06T17:54:58.319Z,10.73
2023-01-06T17:59:59.766Z,11.07
2023-01-06T18:05:11.295Z,11.68
2023-01-06T18:10:17.344Z,16.70
2023-01-06T18:15:33.510Z,11.93
2023-01-06T18:20:34.972Z,8.32
2023-01-06T18:25:36.446Z,9.40
2023-01-06T18:30:37.912Z,14.52
2023-01-06T18:35:39.829Z,12.70
2023-01-06T18:40:41.489Z,10.75
2023-01-06T18:45:43.012Z,12.20
2023-01-06T18:50:45.369Z,13.95
2023-01-06T18:55:51.359Z,13.68
2023-01-06T19:00:54.533Z,14.38
2023-01-06T19:06:04.771Z,18.70
2023-01-06T19:11:15.965Z,16.92
2023-01-06T19:16:32.805Z,14.20
2023-01-06T19:21:35.073Z,13.43
2023-01-06T19:26:39.912Z,16.23
2023-01-06T19:31:45.218Z,14.73
2023-01-06T19:36:51.171Z,17.65
2023-01-06T19:41:54.335Z,18.63
2023-01-06T19:46:55.820Z,18.08
2023-01-06T19:51:57.448Z,18.73
2023-01-06T19:56:58.941Z,16.00
2023-01-06T20:02:09.457Z,19.33
2023-01-06T20:07:11.013Z,17.80
2023-01-06T20:12:12.905Z,23.48
2023-01-06T20:17:16.614Z,21.73
2023-01-06T20:22:18.043Z,30.52
2023-01-06T20:27:19.534Z,25.15
2023-01-06T20:32:20.965Z,26.58
2023-01-06T20:37:22.474Z,31.38
2023-01-06T20:42:23.933Z,27.90
2023-01-06T20:47:25.348Z,29.20
2023-01-06T20:52:26.842Z,30.38
2023-01-06T20:57:28.313Z,26.77
2023-01-06T21:02:29.918Z,30.98
2023-01-06T21:07:31.439Z,31.67
2023-01-06T21:12:33.028Z,30.02
2023-01-06T21:17:34.474Z,34.90
2023-01-06T21:22:35.917Z,33.88
2023-01-06T21:27:37.423Z,33.30
2023-01-06T21:32:39.010Z,31.40
2023-01-06T21:37:40.421Z,33.25
2023-01-06T21:43:00.440Z,35.15
2023-01-06T21:48:01.912Z,31.42
2023-01-06T21:53:03.526Z,35.97
2023-01-06T21:58:05.068Z,30.83
2023-01-06T22:03:06.684Z,31.20
2023-01-06T22:08:08.422Z,31.58
2023-01-06T22:13:11.762Z,30.13
2023-01-06T22:18:13.367Z,28.15
2023-01-06T22:23:18.126Z,28.70
2023-01-06T22:28:19.580Z,31.10
2023-01-06T22:33:21.017Z,29.50
2023-01-06T22:38:22.587Z,29.08
2023-01-06T22:43:24.051Z,28.95
2023-01-06T22:48:25.538Z,30.08
2023-01-06T22:53:27.769Z,26.83
2023-01-06T22:58:30.066Z,24.17
2023-01-06T23:03:32.045Z,23.17
2023-01-06T23:08:34.153Z,23.98
2023-01-06T23:13:36.541Z,21.80
2023-01-06T23:18:38.750Z,22.40
2023-01-06T23:23:40.916Z,22.38
2023-01-06T23:28:42.842Z,22.42
2023-01-06T23:33:48.462Z,21.30
2023-01-06T23:38:50.450Z,21.33
2023-01-06T23:43:52.417Z,19.65
2023-01-06T23:48:54.464Z,20.25
2023-01-06T23:53:56.265Z,19.00
2023-01-06T23:58:58.600Z,19.75
